Line Lexington, Pennsylvania
Current Conditions -  °F | °C
As of 6:54 PM on Monday 24 Nov 2014 (Local Time) from KDYL Reporting Station
Clear Clear  
Wind Chill: 60°   Ceiling: Unl
Heat Index: 60°   Visibility: 10mi
Dew Point: 55°   Wind: 5mph
Humidity: 83%   Direction: NA
Pressure: 29.67"   Gusts: NA
Location:  40.29°N, 75.26°W
Report Text: KDYL 242354Z AUTO VRB04KT 10SM CLR 16/13 A2967 RMK AO2 SLP046 T01560128 10206 20156 51020
Loading
Personal Weather Stations






























Interactive Weather Map New forecast layout! Learn more

10-Day Weather Forecast

Advertisements
Track Severe Weather on mobile